Time;durP1;ratioP1;P1;durP2;ratioP2;P2;SDS_P1;SDS_P2;PMS_P1;PMS_P2;Temp;Humidity;BMP_temperature;BMP_pressure;BME280_temperature;BME280_humidity;BME280_pressure;Samples;Min_cycle;Max_cycle;Signal;HPM_P1;HPM_P2
2021/11/05 00:04:40;;;;;;;0.00;0.00;;;;;;;6.39;100.00;101145.84;10576236;28;20024;-67
2021/11/05 00:09:41;;;;;;;0.00;0.00;;;;;;;6.36;100.00;101146.91;10576241;28;20024;-67
2021/11/05 00:14:42;;;;;;;0.00;0.00;;;;;;;6.35;100.00;101150.53;10564010;28;20015;-67
2021/11/05 00:19:42;;;;;;;0.00;0.00;;;;;;;6.33;100.00;101155.09;10577102;28;20023;-67
2021/11/05 00:24:42;;;;;;;0.00;0.00;;;;;;;6.33;100.00;101163.88;10576170;28;20254;-67
2021/11/05 00:29:43;;;;;;;0.00;0.00;;;;;;;6.34;100.00;101175.28;10576171;28;20019;-67
2021/11/05 00:34:43;;;;;;;0.00;0.00;;;;;;;6.36;100.00;101173.38;10575339;28;20293;-67
2021/11/05 00:39:43;;;;;;;0.00;0.00;;;;;;;6.38;100.00;101181.22;10574904;28;20386;-67
2021/11/05 00:44:43;;;;;;;0.00;0.00;;;;;;;6.39;100.00;101188.16;10560847;28;20257;-67
2021/11/05 00:49:44;;;;;;;0.00;0.00;;;;;;;6.41;100.00;101189.72;10574991;28;20016;-67
2021/11/05 00:54:45;;;;;;;0.00;0.00;;;;;;;6.42;100.00;101196.69;10542306;28;20035;-67
2021/11/05 00:59:45;;;;;;;0.00;0.00;;;;;;;6.46;100.00;101200.78;10533110;28;20426;-67
2021/11/05 01:04:46;;;;;;;0.00;0.00;;;;;;;6.47;100.00;101213.06;10532164;28;20020;-67
2021/11/05 01:09:46;;;;;;;0.03;0.03;;;;;;;6.50;100.00;101219.91;10535825;28;20250;-67
2021/11/05 01:14:47;;;;;;;0.00;0.00;;;;;;;6.51;100.00;101214.47;10556267;28;20027;-67
2021/11/05 01:19:48;;;;;;;0.00;0.00;;;;;;;6.54;100.00;101216.03;10561070;28;20787;-67
2021/11/05 01:24:49;;;;;;;0.00;0.00;;;;;;;6.54;100.00;101219.56;10540099;28;20024;-67
2021/11/05 01:29:50;;;;;;;0.00;0.00;;;;;;;6.59;100.00;101232.41;10553960;28;20020;-68
2021/11/05 01:34:51;;;;;;;0.00;0.00;;;;;;;6.64;100.00;101235.53;10582187;28;20068;-67
2021/11/05 01:39:51;;;;;;;0.00;0.00;;;;;;;6.67;100.00;101245.88;10581653;28;20562;-67
2021/11/05 01:44:51;;;;;;;0.00;0.00;;;;;;;6.70;100.00;101248.25;10567140;28;20106;-66
2021/11/05 01:49:52;;;;;;;0.00;0.00;;;;;;;6.76;100.00;101255.72;10581674;28;20094;-67
2021/11/05 01:54:53;;;;;;;0.00;0.00;;;;;;;6.79;100.00;101263.41;10581065;28;20470;-67
2021/11/05 01:59:53;;;;;;;0.00;0.00;;;;;;;6.82;100.00;101256.19;10580852;28;20026;-67
2021/11/05 02:04:53;;;;;;;0.10;0.10;;;;;;;6.83;100.00;101258.69;10574587;28;20028;-67
2021/11/05 02:09:57;;;;;;;0.00;0.00;;;;;;;6.83;100.00;101260.50;10561251;27;20394;-67
2021/11/05 02:14:58;;;;;;;0.00;0.00;;;;;;;6.83;100.00;101266.63;10535597;28;20069;-67
2021/11/05 02:20:00;;;;;;;0.00;0.00;;;;;;;6.83;100.00;101274.56;10540843;28;20382;-66
2021/11/05 02:25:01;;;;;;;0.00;0.00;;;;;;;6.84;100.00;101283.38;10575700;28;20092;-66
2021/11/05 02:30:05;;;;;;;0.00;0.00;;;;;;;6.86;100.00;101284.09;10579564;28;20015;-66
2021/11/05 02:35:06;;;;;;;0.00;0.00;;;;;;;6.83;100.00;101290.47;10578321;28;20516;-67
2021/11/05 02:40:07;;;;;;;0.00;0.00;;;;;;;6.79;100.00;101289.03;10573530;28;20015;-67
2021/11/05 02:45:08;;;;;;;0.00;0.00;;;;;;;6.79;100.00;101300.47;10578792;28;20084;-67
2021/11/05 02:50:13;;;;;;;0.00;0.00;;;;;;;6.82;100.00;101307.31;10566139;28;20492;-67
2021/11/05 02:55:15;;;;;;;0.00;0.00;;;;;;;6.85;100.00;101317.66;10565566;28;20038;-67
2021/11/05 03:00:15;;;;;;;0.00;0.00;;;;;;;6.82;100.00;101320.56;10578518;28;20482;-67
2021/11/05 03:05:16;;;;;;;0.00;0.00;;;;;;;6.70;100.00;101318.91;10577422;28;20016;-67
2021/11/05 03:10:16;;;;;;;0.00;0.00;;;;;;;6.58;100.00;101326.00;10578129;28;20023;-67
2021/11/05 03:15:17;;;;;;;0.00;0.00;;;;;;;6.46;100.00;101334.91;10574226;28;20084;-67
2021/11/05 03:20:17;;;;;;;0.00;0.00;;;;;;;6.38;100.00;101342.59;10540280;28;20452;-67
2021/11/05 03:25:18;;;;;;;0.00;0.00;;;;;;;6.38;100.00;101350.56;10574189;28;20113;-67
2021/11/05 03:30:19;;;;;;;0.00;0.00;;;;;;;6.45;100.00;101352.56;10551152;27;20744;-67
2021/11/05 03:35:19;;;;;;;0.00;0.00;;;;;;;6.54;100.00;101359.81;10534705;28;20099;-67
2021/11/05 03:40:20;;;;;;;0.00;0.00;;;;;;;6.58;100.00;101363.91;10534714;28;20023;-67
2021/11/05 03:45:20;;;;;;;0.00;0.00;;;;;;;6.64;100.00;101370.53;10534320;28;20051;-66
2021/11/05 03:50:21;;;;;;;0.00;0.00;;;;;;;6.71;100.00;101384.94;10539771;28;20008;-67
2021/11/05 03:55:21;;;;;;;0.00;0.00;;;;;;;6.75;100.00;101386.41;10538386;28;20085;-66
2021/11/05 04:00:22;;;;;;;0.00;0.00;;;;;;;6.85;100.00;101398.94;10534171;28;20296;-66
2021/11/05 04:05:23;;;;;;;0.00;0.00;;;;;;;6.92;100.00;101406.28;10530527;28;20103;-67
2021/11/05 04:10:23;;;;;;;0.00;0.00;;;;;;;6.98;100.00;101411.09;10532858;28;20023;-66
2021/11/05 04:15:24;;;;;;;0.00;0.00;;;;;;;7.00;100.00;101419.72;10563413;22;20040;-66
2021/11/05 04:20:24;;;;;;;0.00;0.00;;;;;;;7.03;100.00;101431.88;10538119;28;20442;-67
2021/11/05 04:25:25;;;;;;;0.00;0.00;;;;;;;7.04;100.00;101433.59;10559067;28;20047;-67
2021/11/05 04:30:25;;;;;;;0.00;0.00;;;;;;;7.07;100.00;101436.00;10566153;28;20015;-67
2021/11/05 04:35:26;;;;;;;0.00;0.00;;;;;;;7.09;100.00;101447.28;10556932;28;20031;-67
2021/11/05 04:40:26;;;;;;;0.00;0.00;;;;;;;7.09;100.00;101457.91;10557289;28;20020;-67
2021/11/05 04:45:27;;;;;;;0.00;0.00;;;;;;;7.09;100.00;101465.00;10557782;28;20378;-67
2021/11/05 04:50:27;;;;;;;0.00;0.00;;;;;;;7.07;100.00;101469.56;10550475;28;20390;-67
2021/11/05 04:55:27;;;;;;;0.00;0.00;;;;;;;7.05;100.00;101471.53;10551407;28;20026;-67
2021/11/05 05:00:28;;;;;;;0.00;0.00;;;;;;;7.03;100.00;101474.28;10516593;28;20032;-67
2021/11/05 05:05:29;;;;;;;0.08;0.08;;;;;;;6.93;100.00;101479.47;10549539;28;20016;-67
2021/11/05 05:10:30;;;;;;;0.00;0.00;;;;;;;6.82;100.00;101481.25;10556751;28;20022;-67
2021/11/05 05:15:30;;;;;;;0.00;0.00;;;;;;;6.73;100.00;101494.22;10553510;28;20028;-67
2021/11/05 05:20:31;;;;;;;0.00;0.00;;;;;;;6.62;100.00;101496.03;10544384;28;20102;-67
2021/11/05 05:25:31;;;;;;;0.00;0.00;;;;;;;6.53;100.00;101508.16;10544839;28;20023;-67
2021/11/05 05:30:32;;;;;;;0.00;0.00;;;;;;;6.43;100.00;101513.31;10551319;28;20458;-67
2021/11/05 05:35:32;;;;;;;0.00;0.00;;;;;;;6.35;100.00;101523.63;10554856;28;20019;-67
2021/11/05 05:40:33;;;;;;;0.00;0.00;;;;;;;6.25;100.00;101531.38;10546306;28;20024;-67
2021/11/05 05:45:33;;;;;;;0.00;0.00;;;;;;;6.19;100.00;101533.63;10547479;28;20020;-67
2021/11/05 05:50:33;;;;;;;0.00;0.00;;;;;;;6.18;100.00;101548.66;10547998;28;20254;-66
2021/11/05 05:55:34;;;;;;;0.00;0.00;;;;;;;6.16;100.00;101547.09;10554309;28;20028;-67
2021/11/05 06:00:35;;;;;;;0.00;0.00;;;;;;;6.16;100.00;101557.66;10561781;28;20024;-67
2021/11/05 06:05:36;;;;;;;0.10;0.10;;;;;;;6.15;100.00;101567.41;10564568;28;20035;-67
2021/11/05 06:10:36;;;;;;;0.00;0.00;;;;;;;6.14;100.00;101563.09;10570635;28;20357;-66
2021/11/05 06:15:37;;;;;;;0.00;0.00;;;;;;;6.09;100.00;101575.78;10555857;28;20028;-66
2021/11/05 06:20:37;;;;;;;0.00;0.00;;;;;;;6.00;100.00;101579.97;10563755;28;20386;-67
2021/11/05 06:25:38;;;;;;;0.00;0.00;;;;;;;5.90;100.00;101590.34;10557604;28;20016;-67
2021/11/05 06:30:39;;;;;;;0.00;0.00;;;;;;;5.84;100.00;101595.19;10551236;28;20451;-67
2021/11/05 06:35:39;;;;;;;0.00;0.00;;;;;;;5.87;100.00;101605.53;10549053;28;20424;-67
2021/11/05 06:40:40;;;;;;;0.00;0.00;;;;;;;5.97;100.00;101616.38;10564188;28;20069;-66
2021/11/05 06:45:41;;;;;;;0.00;0.00;;;;;;;6.02;100.00;101623.00;10564411;28;20424;-67
2021/11/05 06:50:42;;;;;;;0.00;0.00;;;;;;;6.07;100.00;101630.59;10554906;28;20076;-66
2021/11/05 06:55:43;;;;;;;0.00;0.00;;;;;;;6.10;100.00;101639.16;10552517;28;20047;-67
2021/11/05 07:00:43;;;;;;;0.00;0.00;;;;;;;6.21;100.00;101648.97;10558445;28;20027;-67
2021/11/05 07:05:43;;;;;;;0.00;0.00;;;;;;;6.36;100.00;101654.94;10549015;28;20055;-67
2021/11/05 07:10:46;;;;;;;0.00;0.00;;;;;;;6.53;100.00;101656.38;10562036;28;20101;-67
2021/11/05 07:15:47;;;;;;;0.00;0.00;;;;;;;6.79;100.00;101667.69;10558183;28;20608;-67
2021/11/05 07:20:48;;;;;;;0.03;0.03;;;;;;;6.96;100.00;101674.38;10559384;28;20122;-67
2021/11/05 07:25:49;;;;;;;0.00;0.00;;;;;;;7.09;100.00;101685.72;10545527;28;20016;-67
2021/11/05 07:30:49;;;;;;;0.00;0.00;;;;;;;7.24;100.00;101699.63;10563511;28;20113;-67
2021/11/05 07:35:49;;;;;;;0.00;0.00;;;;;;;7.35;100.00;101710.25;10547230;28;20330;-67
2021/11/05 07:40:50;;;;;;;0.00;0.00;;;;;;;7.46;100.00;101714.75;10562840;28;20617;-67
2021/11/05 07:45:50;;;;;;;0.10;0.10;;;;;;;7.56;100.00;101723.66;10551204;28;20014;-67
2021/11/05 07:50:50;;;;;;;0.10;0.10;;;;;;;7.64;100.00;101734.53;10551758;28;20501;-67
2021/11/05 07:55:51;;;;;;;0.00;0.00;;;;;;;7.72;100.00;101734.78;10558350;28;20023;-67
2021/11/05 08:00:51;;;;;;;0.00;0.00;;;;;;;7.83;100.00;101731.31;10552641;28;20102;-67
2021/11/05 08:05:52;;;;;;;0.00;0.00;;;;;;;7.97;100.00;101758.56;10551251;28;20022;-67
2021/11/05 08:10:53;;;;;;;0.00;0.00;;;;;;;8.13;100.00;101762.56;10556416;28;20047;-67
2021/11/05 08:15:53;;;;;;;0.00;0.00;;;;;;;8.22;100.00;101766.31;10544553;28;20123;-67
2021/11/05 08:20:53;;;;;;;0.00;0.00;;;;;;;8.25;100.00;101771.38;10558425;28;20012;-67
2021/11/05 08:25:54;;;;;;;0.10;0.10;;;;;;;8.32;100.00;101774.38;10561513;28;20475;-67
2021/11/05 08:30:55;;;;;;;0.00;0.00;;;;;;;8.39;100.00;101787.09;10558082;28;20027;-67
2021/11/05 08:35:56;;;;;;;0.10;0.10;;;;;;;8.49;100.00;101789.84;10552410;28;20027;-67
2021/11/05 08:40:56;;;;;;;0.10;0.10;;;;;;;8.61;100.00;101799.50;10553001;28;20031;-67
2021/11/05 08:46:00;;;;;;;0.10;0.10;;;;;;;8.71;100.00;101812.88;10565333;28;20050;-67
2021/11/05 08:51:07;;;;;;;0.00;0.00;;;;;;;8.78;99.29;101821.19;10558143;28;20486;-67
2021/11/05 08:56:08;;;;;;;0.10;0.10;;;;;;;8.98;100.00;101817.78;10550765;28;20070;-67
2021/11/05 09:01:09;;;;;;;0.10;0.10;;;;;;;9.96;97.07;101827.41;10543728;28;20532;-67
2021/11/05 09:06:09;;;;;;;0.10;0.10;;;;;;;10.71;95.46;101831.56;10548358;28;20024;-67
2021/11/05 09:11:11;;;;;;;0.10;0.10;;;;;;;11.07;92.76;101837.28;10557612;28;20059;-67
2021/11/05 09:16:11;;;;;;;0.03;0.03;;;;;;;11.32;90.46;101836.75;10559734;28;20036;-67
2021/11/05 09:21:12;;;;;;;0.00;0.00;;;;;;;11.57;90.66;101850.50;10548333;28;20550;-68
2021/11/05 09:26:13;;;;;;;0.10;0.10;;;;;;;11.30;89.89;101854.69;10563043;28;20367;-67
2021/11/05 09:31:14;;;;;;;0.10;0.10;;;;;;;11.38;90.32;101862.03;10555483;28;20102;-67
2021/11/05 09:36:16;;;;;;;0.05;0.05;;;;;;;11.28;89.00;101864.66;10574352;28;20512;-67
2021/11/05 09:41:17;;;;;;;0.03;0.03;;;;;;;10.85;89.40;101863.19;10559045;28;20445;-66
2021/11/05 09:46:17;;;;;;;0.10;0.10;;;;;;;10.59;91.09;101869.97;10555674;28;20113;-67
2021/11/05 09:51:18;;;;;;;0.07;0.07;;;;;;;10.51;91.69;101877.78;10558182;28;20529;-67
2021/11/05 09:56:19;;;;;;;0.10;0.10;;;;;;;10.50;92.03;101887.59;10557862;28;20394;-67
2021/11/05 10:01:19;;;;;;;0.10;0.10;;;;;;;10.48;91.31;101894.03;10559142;28;20023;-67
2021/11/05 10:06:23;;;;;;;0.10;0.10;;;;;;;10.55;91.54;101900.50;10552981;28;20026;-67
2021/11/05 10:11:31;;;;;;;0.10;0.10;;;;;;;10.74;91.92;101907.75;10557578;28;20024;-67
2021/11/05 10:16:32;;;;;;;0.10;0.10;;;;;;;10.88;91.46;101908.22;10474987;22;20045;-66
2021/11/05 10:21:43;;;;;;;0.10;0.10;;;;;;;10.98;90.70;101923.41;10454347;28;20480;-66
2021/11/05 10:26:47;;;;;;;0.10;0.10;;;;;;;11.02;90.96;101930.97;10452166;28;20025;-68
2021/11/05 10:31:48;;;;;;;0.10;0.10;;;;;;;11.10;90.53;101922.31;10441883;28;20025;-65
2021/11/05 10:36:50;;;;;;;0.10;0.10;;;;;;;11.24;90.46;101919.28;10414330;28;20017;-65
2021/11/05 10:41:57;;;;;;;0.00;0.00;;;;;;;11.36;89.29;101928.00;10411815;28;20264;-65
2021/11/05 10:47:08;;;;;;;0.10;0.10;;;;;;;11.40;88.61;101932.06;10437531;28;20017;-65
2021/11/05 10:52:23;;;;;;;0.10;0.10;;;;;;;11.40;87.90;101936.56;10432523;28;20101;-65
2021/11/05 10:57:45;;;;;;;0.10;0.10;;;;;;;11.40;87.15;101941.91;10426887;28;20027;-65
2021/11/05 11:02:45;;;;;;;0.10;0.10;;;;;;;11.46;87.37;101938.69;10451269;28;20060;-65
2021/11/05 11:07:45;;;;;;;0.10;0.10;;;;;;;11.60;86.49;101946.28;10452947;28;20032;-65
2021/11/05 11:12:45;;;;;;;0.10;0.10;;;;;;;11.68;85.59;101949.09;10451501;28;20028;-65
2021/11/05 11:17:53;;;;;;;0.10;0.10;;;;;;;11.80;84.86;101941.81;10453569;28;20476;-65
2021/11/05 11:22:54;;;;;;;0.00;0.00;;;;;;;11.89;83.96;101948.16;10453563;28;20133;-65
2021/11/05 11:27:54;;;;;;;0.10;0.10;;;;;;;12.03;82.66;101946.91;10453585;28;20111;-65
2021/11/05 11:32:58;;;;;;;0.07;0.07;;;;;;;12.17;79.46;101950.00;10453212;28;20078;-65
2021/11/05 11:37:58;;;;;;;0.10;0.10;;;;;;;12.16;79.75;101953.66;10453642;28;20271;-65
2021/11/05 11:42:59;;;;;;;0.00;0.00;;;;;;;12.01;78.02;101965.72;10451011;28;20399;-65
2021/11/05 11:47:59;;;;;;;0.10;0.10;;;;;;;11.82;77.95;101961.22;10448349;28;20052;-65
2021/11/05 11:53:06;;;;;;;0.10;0.10;;;;;;;11.64;77.81;101962.88;10445739;28;20021;-65
2021/11/05 11:58:14;;;;;;;0.10;0.10;;;;;;;11.55;79.31;101965.41;10450756;28;20017;-65
2021/11/05 12:03:18;;;;;;;0.10;0.10;;;;;;;11.50;79.10;101964.13;10450672;28;20505;-65
2021/11/05 12:08:37;;;;;;;0.10;0.10;;;;;;;11.43;79.53;101970.97;10452136;28;20387;-65
2021/11/05 12:13:37;;;;;;;0.10;0.10;;;;;;;11.30;80.05;101966.72;10433701;28;20040;-65
2021/11/05 12:19:00;;;;;;;0.10;0.10;;;;;;;11.15;80.68;101968.09;10413088;28;20044;-64
2021/11/05 12:24:16;;;;;;;0.10;0.10;;;;;;;11.06;82.58;101971.56;10426006;28;20472;-65
2021/11/05 12:29:34;;;;;;;0.10;0.10;;;;;;;11.00;83.89;101972.94;10450335;28;20017;-64
2021/11/05 12:34:39;;;;;;;0.10;0.10;;;;;;;10.98;84.15;101969.56;10449349;28;20521;-64
2021/11/05 12:39:41;;;;;;;0.10;0.10;;;;;;;10.94;84.93;101964.63;10449470;28;20068;-64
2021/11/05 12:44:56;;;;;;;0.10;0.10;;;;;;;11.00;86.04;101975.63;10446436;28;20025;-64
2021/11/05 12:50:00;;;;;;;0.10;0.10;;;;;;;11.19;85.92;101980.16;10449231;28;20098;-65
2021/11/05 12:55:03;;;;;;;0.10;0.10;;;;;;;11.51;83.24;101987.97;10448740;28;20104;-64
2021/11/05 13:00:09;;;;;;;0.10;0.10;;;;;;;11.71;81.39;101986.19;10434790;28;20017;-65
2021/11/05 13:05:10;;;;;;;0.10;0.10;;;;;;;11.72;80.25;101984.38;10426001;28;20124;-64
2021/11/05 13:10:10;;;;;;;0.10;0.10;;;;;;;11.68;78.67;101982.97;10416370;28;20426;-64
2021/11/05 13:15:10;;;;;;;0.10;0.10;;;;;;;11.72;77.50;101995.91;10434442;28;20028;-64
2021/11/05 13:20:24;;;;;;;0.10;0.10;;;;;;;11.72;78.85;101992.38;10456761;28;20053;-64
2021/11/05 13:25:29;;;;;;;0.00;0.00;;;;;;;11.58;79.92;102014.97;10432478;28;20026;-65
2021/11/05 13:30:41;;;;;;;0.08;0.08;;;;;;;11.26;82.47;102028.50;10443224;28;20025;-65
2021/11/05 13:36:04;;;;;;;0.10;0.10;;;;;;;10.95;85.18;102043.63;10455924;28;20491;-64
2021/11/05 13:41:19;;;;;;;0.10;0.10;;;;;;;10.76;86.42;102041.69;10428257;28;20122;-65
2021/11/05 13:46:25;;;;;;;0.03;0.03;;;;;;;10.55;87.63;102039.88;10453659;28;20032;-65
2021/11/05 13:51:30;;;;;;;0.10;0.10;;;;;;;10.38;88.87;102054.63;10414265;28;20413;-65
2021/11/05 13:56:35;;;;;;;;;;;;;;;10.22;89.24;102062.16;10453130;28;20013;-64
2021/11/05 14:01:36;;;;;;;0.10;0.10;;;;;;;10.04;90.05;102061.84;10454870;28;19920;-65
2021/11/05 14:06:45;;;;;;;0.10;0.10;;;;;;;9.90;90.73;102067.44;10454836;28;20044;-65
2021/11/05 14:11:51;;;;;;;0.10;0.10;;;;;;;9.85;91.44;102073.13;10454270;28;20768;-65
2021/11/05 14:16:54;;;;;;;0.00;0.00;;;;;;;9.88;91.53;102085.34;10446403;28;20476;-65
2021/11/05 14:22:04;;;;;;;0.10;0.10;;;;;;;9.95;91.82;102078.56;10453492;28;20093;-65
2021/11/05 14:27:23;;;;;;;0.10;0.10;;;;;;;9.97;92.55;102084.59;10417694;28;20025;-65
2021/11/05 14:32:35;;;;;;;0.10;0.10;;;;;;;10.05;93.04;102078.66;10413014;28;20064;-65
2021/11/05 14:37:35;;;;;;;0.10;0.10;;;;;;;10.02;92.83;102089.56;10416993;28;20025;-65
2021/11/05 14:42:38;;;;;;;0.10;0.10;;;;;;;9.82;92.42;102083.19;10411856;28;20029;-64
2021/11/05 14:47:40;;;;;;;0.10;0.10;;;;;;;9.59;92.41;102082.38;10451249;28;20483;-64
2021/11/05 14:53:02;;;;;;;0.10;0.10;;;;;;;9.40;92.59;102098.94;10447290;28;20100;-64
2021/11/05 14:58:15;;;;;;;0.10;0.10;;;;;;;9.22;93.04;102096.75;10452640;28;20025;-64
2021/11/05 15:03:17;;;;;;;0.00;0.00;;;;;;;9.08;93.68;102104.94;10444805;28;20503;-64
2021/11/05 15:08:18;;;;;;;0.10;0.10;;;;;;;9.03;94.11;102109.75;10422861;28;20545;-64
2021/11/05 15:13:19;;;;;;;0.10;0.10;;;;;;;9.07;94.63;102105.88;10413804;28;20037;-64
2021/11/05 15:18:20;;;;;;;0.00;0.00;;;;;;;9.12;93.89;102109.06;10439294;28;20037;-64
2021/11/05 15:23:25;;;;;;;0.10;0.10;;;;;;;9.18;93.38;102123.69;10439226;28;20033;-64
2021/11/05 15:28:26;;;;;;;0.00;0.00;;;;;;;9.19;93.22;102131.56;10451790;28;20053;-65
2021/11/05 15:33:28;;;;;;;0.10;0.10;;;;;;;9.16;93.61;102133.56;10448093;28;20507;-65
2021/11/05 15:38:30;;;;;;;0.00;0.00;;;;;;;9.17;94.38;102143.28;10439183;28;20016;-64
2021/11/05 15:43:31;;;;;;;0.00;0.00;;;;;;;9.15;95.73;102151.34;10451624;28;20056;-64
2021/11/05 15:48:33;;;;;;;0.10;0.10;;;;;;;9.12;96.47;102158.72;10451606;28;20048;-64
2021/11/05 15:53:35;;;;;;;0.00;0.00;;;;;;;8.98;96.47;102163.25;10449447;28;20062;-64
2021/11/05 15:58:36;;;;;;;0.00;0.00;;;;;;;8.90;97.63;102172.75;10440193;28;20543;-64
2021/11/05 16:03:38;;;;;;;0.00;0.00;;;;;;;8.88;98.29;102183.53;10434834;28;20033;-64
2021/11/05 16:08:38;;;;;;;0.10;0.10;;;;;;;8.86;98.66;102192.56;10430370;28;20460;-64
2021/11/05 16:13:39;;;;;;;0.00;0.00;;;;;;;8.82;99.28;102199.94;10435765;28;20029;-64
2021/11/05 16:18:39;;;;;;;0.10;0.10;;;;;;;8.75;99.43;102180.91;10436525;28;20025;-64
2021/11/05 16:23:39;;;;;;;0.10;0.10;;;;;;;8.68;99.87;102187.66;10442445;28;20268;-64
2021/11/05 16:28:40;;;;;;;0.00;0.00;;;;;;;8.64;99.79;102185.34;10451345;28;20032;-64
2021/11/05 16:33:40;;;;;;;0.10;0.10;;;;;;;8.63;99.98;102202.25;10450922;28;20033;-64
2021/11/05 16:38:41;;;;;;;0.10;0.10;;;;;;;8.63;100.00;102199.59;10450523;28;20035;-63
2021/11/05 16:43:42;;;;;;;0.10;0.10;;;;;;;8.61;100.00;102195.25;10450795;28;20049;-64
2021/11/05 16:48:44;;;;;;;0.10;0.10;;;;;;;8.57;99.58;102204.38;10450784;28;20082;-64
2021/11/05 16:53:46;;;;;;;0.10;0.10;;;;;;;8.49;99.21;102193.47;10450474;28;20026;-63
2021/11/05 16:58:47;;;;;;;0.10;0.10;;;;;;;8.46;98.33;102206.13;10450759;28;20024;-63
2021/11/05 17:03:47;;;;;;;0.03;0.03;;;;;;;8.44;98.03;102208.91;10449761;28;20039;-64
2021/11/05 17:08:49;;;;;;;0.05;0.05;;;;;;;8.32;98.75;102204.44;10450720;28;20365;-63
2021/11/05 17:13:50;;;;;;;0.00;0.00;;;;;;;8.15;98.47;102211.81;10448060;28;20503;-63
2021/11/05 17:18:50;;;;;;;0.10;0.10;;;;;;;8.00;98.90;102220.00;10449971;28;20071;-63
2021/11/05 17:23:52;;;;;;;0.10;0.10;;;;;;;7.87;99.87;102215.56;10449819;28;20059;-63
2021/11/05 17:28:53;;;;;;;0.00;0.00;;;;;;;7.82;99.37;102224.81;10450010;28;20472;-63
2021/11/05 17:33:54;;;;;;;0.10;0.10;;;;;;;7.74;99.80;102227.13;10449728;28;20116;-64
2021/11/05 17:38:55;;;;;;;0.10;0.10;;;;;;;7.67;99.61;102224.91;10449878;28;20021;-63
2021/11/05 17:43:55;;;;;;;0.00;0.00;;;;;;;7.55;100.00;102220.44;10449619;28;20033;-63
2021/11/05 17:48:56;;;;;;;0.10;0.10;;;;;;;7.44;100.00;102239.75;10446316;28;20260;-63
2021/11/05 17:53:56;;;;;;;0.00;0.00;;;;;;;7.34;100.00;102248.44;10455391;28;20071;-63
2021/11/05 17:58:57;;;;;;;0.00;0.00;;;;;;;7.25;100.00;102245.44;10457358;28;20430;-63
2021/11/05 18:03:59;;;;;;;0.00;0.00;;;;;;;7.24;100.00;102257.00;10456789;28;20033;-63
2021/11/05 18:08:59;;;;;;;0.00;0.00;;;;;;;7.27;100.00;102253.28;10457146;28;20531;-63
2021/11/05 18:14:00;;;;;;;0.00;0.00;;;;;;;7.30;100.00;102257.53;10456371;28;20112;-63
2021/11/05 18:19:00;;;;;;;0.00;0.00;;;;;;;7.35;100.00;102258.06;10453173;28;20033;-63
2021/11/05 18:24:01;;;;;;;0.05;0.05;;;;;;;7.42;100.00;102273.47;10456327;28;20068;-63
2021/11/05 18:29:02;;;;;;;0.10;0.10;;;;;;;7.49;100.00;102268.59;10438004;28;20033;-64
2021/11/05 18:34:03;;;;;;;0.00;0.00;;;;;;;7.56;100.00;102271.69;10455700;28;20037;-63
2021/11/05 18:39:06;;;;;;;0.10;0.10;;;;;;;7.57;100.00;102274.25;10456033;28;20468;-63
2021/11/05 18:44:07;;;;;;;0.00;0.00;;;;;;;7.52;100.00;102271.03;10455062;28;20029;-63
2021/11/05 18:49:08;;;;;;;0.00;0.00;;;;;;;7.51;100.00;102268.50;10452473;28;20018;-64
2021/11/05 18:54:09;;;;;;;0.00;0.00;;;;;;;7.52;99.98;102263.09;10453254;28;20029;-63
2021/11/05 18:59:11;;;;;;;0.00;0.00;;;;;;;7.54;100.00;102265.66;10455107;28;20033;-63
2021/11/05 19:04:12;;;;;;;0.00;0.00;;;;;;;7.49;100.00;102274.75;10453927;28;20112;-63
2021/11/05 19:09:14;;;;;;;0.00;0.00;;;;;;;7.49;100.00;102281.84;10453168;28;20021;-63
2021/11/05 19:14:17;;;;;;;0.00;0.00;;;;;;;7.55;100.00;102288.56;10443232;28;20495;-63
2021/11/05 19:19:17;;;;;;;0.00;0.00;;;;;;;7.62;100.00;102288.03;10436115;28;20017;-64
2021/11/05 19:24:19;;;;;;;0.00;0.00;;;;;;;7.70;99.98;102284.84;10446702;28;20079;-64
2021/11/05 19:29:26;;;;;;;0.00;0.00;;;;;;;7.74;99.74;102288.13;10451738;28;20442;-63
2021/11/05 19:34:26;;;;;;;0.00;0.00;;;;;;;7.70;99.58;102285.69;10451623;28;20017;-64
2021/11/05 19:39:29;;;;;;;0.00;0.00;;;;;;;7.68;100.00;102297.38;10451747;28;20383;-63
2021/11/05 19:44:29;;;;;;;0.00;0.00;;;;;;;7.69;100.00;102291.97;10436030;28;20092;-64
2021/11/05 19:49:30;;;;;;;0.10;0.10;;;;;;;7.69;100.00;102294.63;10397393;28;20434;-64
2021/11/05 19:54:30;;;;;;;0.00;0.00;;;;;;;7.72;99.65;102301.53;10398210;28;20017;-64
2021/11/05 19:59:31;;;;;;;0.00;0.00;;;;;;;7.75;99.71;102295.16;10436312;28;20017;-63
2021/11/05 20:04:31;;;;;;;0.00;0.00;;;;;;;7.80;100.00;102299.19;10449231;28;20260;-63
2021/11/05 20:09:31;;;;;;;0.00;0.00;;;;;;;7.83;99.51;102295.50;10450560;28;20020;-63
2021/11/05 20:14:32;;;;;;;0.00;0.00;;;;;;;7.87;100.00;102296.97;10433697;28;20021;-63
2021/11/05 20:19:32;;;;;;;0.10;0.10;;;;;;;7.89;100.00;102295.91;10410586;28;20025;-63
2021/11/05 20:24:33;;;;;;;0.00;0.00;;;;;;;7.93;100.00;102294.72;10446787;28;20028;-64
2021/11/05 20:29:34;;;;;;;0.00;0.00;;;;;;;7.96;100.00;102293.66;10448118;28;20013;-63
2021/11/05 20:34:35;;;;;;;0.00;0.00;;;;;;;7.96;100.00;102293.66;10443959;28;20028;-64
2021/11/05 20:39:39;;;;;;;0.00;0.00;;;;;;;8.00;100.00;102302.25;10446696;28;20020;-64
2021/11/05 20:44:39;;;;;;;0.00;0.00;;;;;;;8.03;100.00;102316.19;10433191;28;20029;-63
2021/11/05 20:49:41;;;;;;;0.10;0.10;;;;;;;8.07;100.00;102315.00;10414439;28;20021;-63
2021/11/05 20:54:42;;;;;;;0.00;0.00;;;;;;;8.09;100.00;102314.91;10447352;28;20317;-64
2021/11/05 20:59:42;;;;;;;0.00;0.00;;;;;;;8.12;100.00;102322.66;10424006;28;20071;-63
2021/11/05 21:04:43;;;;;;;0.00;0.00;;;;;;;8.14;100.00;102316.31;10428975;28;20036;-64
2021/11/05 21:09:43;;;;;;;0.00;0.00;;;;;;;8.15;100.00;102336.56;10447496;28;20020;-64
2021/11/05 21:14:44;;;;;;;0.00;0.00;;;;;;;8.16;100.00;102326.78;10430719;28;20032;-63
2021/11/05 21:19:44;;;;;;;0.10;0.10;;;;;;;8.17;100.00;102339.09;10414395;28;20014;-64
2021/11/05 21:24:45;;;;;;;0.00;0.00;;;;;;;8.19;100.00;102333.69;10448394;28;20106;-63
2021/11/05 21:29:45;;;;;;;0.10;0.10;;;;;;;8.21;100.00;102340.59;10456622;28;20020;-64
2021/11/05 21:34:45;;;;;;;0.08;0.08;;;;;;;8.26;100.00;102342.91;10456634;28;20032;-64
2021/11/05 21:39:46;;;;;;;0.10;0.10;;;;;;;8.29;100.00;102348.00;10451042;28;20016;-64
2021/11/05 21:44:46;;;;;;;0.00;0.00;;;;;;;8.28;100.00;102339.19;10437371;28;20021;-64
2021/11/05 21:49:47;;;;;;;0.03;0.03;;;;;;;8.29;100.00;102340.91;10422619;28;20376;-64
2021/11/05 21:54:49;;;;;;;0.00;0.00;;;;;;;8.34;100.00;102349.38;10455325;28;20027;-64
2021/11/05 21:59:50;;;;;;;0.00;0.00;;;;;;;8.38;100.00;102360.66;10455755;28;20017;-64
2021/11/05 22:04:50;;;;;;;0.05;0.05;;;;;;;8.39;100.00;102365.03;10455448;28;20438;-63
2021/11/05 22:09:52;;;;;;;0.10;0.10;;;;;;;8.35;100.00;102356.41;10455140;28;20082;-63
2021/11/05 22:14:52;;;;;;;0.00;0.00;;;;;;;8.33;100.00;102338.88;10503855;22;20043;-65
2021/11/05 22:19:52;;;;;;;0.00;0.00;;;;;;;8.31;100.00;102338.13;10543206;28;20035;-65
2021/11/05 22:24:53;;;;;;;0.00;0.00;;;;;;;8.29;100.00;102346.22;10545841;28;20019;-65
2021/11/05 22:29:53;;;;;;;0.08;0.08;;;;;;;8.31;100.00;102352.25;10535278;28;20438;-65
2021/11/05 22:34:56;;;;;;;0.00;0.00;;;;;;;8.33;100.00;102347.69;10534991;28;20020;-65
2021/11/05 22:39:57;;;;;;;0.00;0.00;;;;;;;8.36;100.00;102351.94;10533581;28;20047;-65
2021/11/05 22:44:57;;;;;;;0.10;0.10;;;;;;;8.42;99.93;102369.28;10534249;28;20161;-65
2021/11/05 22:49:58;;;;;;;0.10;0.10;;;;;;;8.43;100.00;102374.47;10546483;28;20097;-65
2021/11/05 22:55:00;;;;;;;0.00;0.00;;;;;;;8.45;100.00;102366.41;10543984;28;20034;-65
2021/11/05 23:00:04;;;;;;;0.10;0.10;;;;;;;8.45;99.69;102367.25;10533846;28;20012;-65
2021/11/05 23:05:04;;;;;;;0.00;0.00;;;;;;;8.37;99.37;102364.25;10533212;28;20020;-65
2021/11/05 23:10:05;;;;;;;0.10;0.10;;;;;;;8.24;99.30;102379.34;10533774;28;20016;-65
2021/11/05 23:15:06;;;;;;;0.10;0.10;;;;;;;8.15;98.85;102373.72;10532978;28;20522;-65